sensor_id;sensor_type;location;lat;lon;timestamp;P1;durP1;ratioP1;P2;durP2;ratioP2
9280;SDS011;4679;47.966;7.958;2023-03-24T06:42:54;4.03;;;3.63;;
9280;SDS011;4679;47.966;7.958;2023-03-24T06:44:56;3.63;;;3.33;;
9280;SDS011;4679;47.966;7.958;2023-03-24T06:46:58;4.13;;;3.67;;
9280;SDS011;4679;47.966;7.958;2023-03-24T06:48:59;3.97;;;3.30;;
9280;SDS011;4679;47.966;7.958;2023-03-24T06:51:01;7.20;;;4.13;;
9280;SDS011;4679;47.966;7.958;2023-03-24T06:53:03;5.27;;;3.80;;
9280;SDS011;4679;47.966;7.958;2023-03-24T06:55:05;4.13;;;3.73;;
9280;SDS011;4679;47.966;7.958;2023-03-24T06:57:07;5.60;;;3.93;;
9280;SDS011;4679;47.966;7.958;2023-03-24T06:59:11;5.80;;;4.03;;
9280;SDS011;4679;47.966;7.958;2023-03-24T07:01:12;5.67;;;3.90;;
9280;SDS011;4679;47.966;7.958;2023-03-24T07:03:15;2.07;;;1.87;;
9280;SDS011;4679;47.966;7.958;2023-03-24T07:05:16;1.60;;;1.50;;
9280;SDS011;4679;47.966;7.958;2023-03-24T07:07:18;2.30;;;1.20;;
9280;SDS011;4679;47.966;7.958;2023-03-24T07:09:23;2.70;;;1.17;;
9280;SDS011;4679;47.966;7.958;2023-03-24T07:11:25;1.83;;;1.00;;
9280;SDS011;4679;47.966;7.958;2023-03-24T07:13:27;1.10;;;1.00;;
9280;SDS011;4679;47.966;7.958;2023-03-24T07:15:30;1.90;;;0.90;;
9280;SDS011;4679;47.966;7.958;2023-03-24T07:17:31;0.90;;;0.80;;
9280;SDS011;4679;47.966;7.958;2023-03-24T07:19:33;2.00;;;0.87;;
9280;SDS011;4679;47.966;7.958;2023-03-24T07:21:35;0.80;;;0.80;;
9280;SDS011;4679;47.966;7.958;2023-03-24T07:23:36;1.10;;;0.80;;
9280;SDS011;4679;47.966;7.958;2023-03-24T07:25:38;0.73;;;0.63;;
9280;SDS011;4679;47.966;7.958;2023-03-24T07:27:40;0.90;;;0.90;;
9280;SDS011;4679;47.966;7.958;2023-03-24T07:29:42;1.10;;;0.90;;
9280;SDS011;4679;47.966;7.958;2023-03-24T07:31:44;0.70;;;0.70;;
9280;SDS011;4679;47.966;7.958;2023-03-24T07:33:47;0.70;;;0.70;;
9280;SDS011;4679;47.966;7.958;2023-03-24T07:35:52;0.70;;;0.70;;
9280;SDS011;4679;47.966;7.958;2023-03-24T07:37:56;1.13;;;0.80;;
9280;SDS011;4679;47.966;7.958;2023-03-24T07:39:57;2.33;;;0.90;;
9280;SDS011;4679;47.966;7.958;2023-03-24T07:41:59;0.80;;;0.80;;
9280;SDS011;4679;47.966;7.958;2023-03-24T07:44:01;1.83;;;1.00;;
9280;SDS011;4679;47.966;7.958;2023-03-24T07:46:02;1.33;;;0.93;;
9280;SDS011;4679;47.966;7.958;2023-03-24T07:48:06;0.93;;;0.80;;
9280;SDS011;4679;47.966;7.958;2023-03-24T07:50:08;1.00;;;1.00;;
9280;SDS011;4679;47.966;7.958;2023-03-24T07:52:10;1.20;;;0.80;;
9280;SDS011;4679;47.966;7.958;2023-03-24T07:54:12;2.30;;;1.00;;
9280;SDS011;4679;47.966;7.958;2023-03-24T07:56:13;1.00;;;0.90;;
9280;SDS011;4679;47.966;7.958;2023-03-24T07:58:15;1.23;;;0.80;;
9280;SDS011;4679;47.966;7.958;2023-03-24T08:00:17;1.77;;;0.87;;
9280;SDS011;4679;47.966;7.958;2023-03-24T08:02:20;2.00;;;0.87;;
9280;SDS011;4679;47.966;7.958;2023-03-24T08:04:23;1.77;;;0.57;;
9280;SDS011;4679;47.966;7.958;2023-03-24T08:06:26;1.43;;;0.73;;
9280;SDS011;4679;47.966;7.958;2023-03-24T08:08:28;1.10;;;0.83;;
9280;SDS011;4679;47.966;7.958;2023-03-24T08:10:30;1.87;;;0.80;;
9280;SDS011;4679;47.966;7.958;2023-03-24T08:12:31;1.00;;;0.90;;
9280;SDS011;4679;47.966;7.958;2023-03-24T08:14:33;1.03;;;0.60;;
9280;SDS011;4679;47.966;7.958;2023-03-24T08:16:35;1.20;;;1.10;;
9280;SDS011;4679;47.966;7.958;2023-03-24T08:18:37;1.30;;;0.93;;
9280;SDS011;4679;47.966;7.958;2023-03-24T08:20:40;0.83;;;0.80;;
9280;SDS011;4679;47.966;7.958;2023-03-24T08:22:43;1.27;;;1.03;;
9280;SDS011;4679;47.966;7.958;2023-03-24T08:24:48;1.03;;;0.90;;
9280;SDS011;4679;47.966;7.958;2023-03-24T08:26:50;1.93;;;0.90;;
9280;SDS011;4679;47.966;7.958;2023-03-24T08:28:52;1.13;;;0.70;;
9280;SDS011;4679;47.966;7.958;2023-03-24T08:30:54;1.63;;;0.70;;
9280;SDS011;4679;47.966;7.958;2023-03-24T08:32:56;1.00;;;0.43;;
9280;SDS011;4679;47.966;7.958;2023-03-24T08:35:00;1.20;;;0.60;;
9280;SDS011;4679;47.966;7.958;2023-03-24T08:37:05;0.60;;;0.60;;
9280;SDS011;4679;47.966;7.958;2023-03-24T08:39:07;0.97;;;0.77;;
9280;SDS011;4679;47.966;7.958;2023-03-24T09:09:25;0.30;;;0.30;;
9280;SDS011;4679;47.966;7.958;2023-03-24T09:11:28;0.30;;;0.30;;
9280;SDS011;4679;47.966;7.958;2023-03-24T09:13:30;0.43;;;0.27;;
9280;SDS011;4679;47.966;7.958;2023-03-24T09:15:31;0.60;;;0.60;;
9280;SDS011;4679;47.966;7.958;2023-03-24T09:17:33;1.03;;;0.93;;
9280;SDS011;4679;47.966;7.958;2023-03-24T09:19:35;0.40;;;0.40;;
9280;SDS011;4679;47.966;7.958;2023-03-24T09:21:38;0.60;;;0.60;;
9280;SDS011;4679;47.966;7.958;2023-03-24T09:23:41;0.40;;;0.40;;
9280;SDS011;4679;47.966;7.958;2023-03-24T09:25:44;0.30;;;0.27;;
9280;SDS011;4679;47.966;7.958;2023-03-24T09:27:48;0.60;;;0.30;;
9280;SDS011;4679;47.966;7.958;2023-03-24T09:29:50;0.30;;;0.30;;
9280;SDS011;4679;47.966;7.958;2023-03-24T09:31:53;0.23;;;0.20;;
9280;SDS011;4679;47.966;7.958;2023-03-24T09:33:54;0.30;;;0.30;;
9280;SDS011;4679;47.966;7.958;2023-03-24T09:35:56;0.30;;;0.30;;
9280;SDS011;4679;47.966;7.958;2023-03-24T09:37:59;0.63;;;0.60;;
9280;SDS011;4679;47.966;7.958;2023-03-24T09:40:00;1.37;;;0.60;;
9280;SDS011;4679;47.966;7.958;2023-03-24T09:42:05;0.40;;;0.30;;
9280;SDS011;4679;47.966;7.958;2023-03-24T09:44:11;0.40;;;0.40;;
9280;SDS011;4679;47.966;7.958;2023-03-24T09:46:23;0.40;;;0.30;;
9280;SDS011;4679;47.966;7.958;2023-03-24T09:48:30;0.43;;;0.20;;
9280;SDS011;4679;47.966;7.958;2023-03-24T09:50:37;0.30;;;0.30;;
9280;SDS011;4679;47.966;7.958;2023-03-24T09:52:43;0.20;;;0.20;;
9280;SDS011;4679;47.966;7.958;2023-03-24T09:54:50;0.37;;;0.37;;
9280;SDS011;4679;47.966;7.958;2023-03-24T09:56:54;0.20;;;0.17;;
9280;SDS011;4679;47.966;7.958;2023-03-24T09:59:01;0.73;;;0.23;;
9280;SDS011;4679;47.966;7.958;2023-03-24T10:01:05;0.30;;;0.30;;
9280;SDS011;4679;47.966;7.958;2023-03-24T10:03:13;0.27;;;0.27;;
9280;SDS011;4679;47.966;7.958;2023-03-24T10:05:21;0.77;;;0.30;;
9280;SDS011;4679;47.966;7.958;2023-03-24T10:07:28;0.33;;;0.33;;
9280;SDS011;4679;47.966;7.958;2023-03-24T10:09:35;0.40;;;0.20;;
9280;SDS011;4679;47.966;7.958;2023-03-24T10:11:39;0.30;;;0.30;;
9280;SDS011;4679;47.966;7.958;2023-03-24T10:13:50;0.60;;;0.60;;
9280;SDS011;4679;47.966;7.958;2023-03-24T10:16:06;0.60;;;0.30;;
9280;SDS011;4679;47.966;7.958;2023-03-24T10:18:17;0.40;;;0.40;;
9280;SDS011;4679;47.966;7.958;2023-03-24T10:20:30;0.40;;;0.40;;
9280;SDS011;4679;47.966;7.958;2023-03-24T10:22:37;0.30;;;0.30;;
9280;SDS011;4679;47.966;7.958;2023-03-24T10:24:47;0.20;;;0.20;;
9280;SDS011;4679;47.966;7.958;2023-03-24T10:26:57;0.23;;;0.23;;
9280;SDS011;4679;47.966;7.958;2023-03-24T10:29:16;1.27;;;0.47;;
9280;SDS011;4679;47.966;7.958;2023-03-24T10:31:25;0.23;;;0.20;;
9280;SDS011;4679;47.966;7.958;2023-03-24T10:33:29;0.30;;;0.30;;
9280;SDS011;4679;47.966;7.958;2023-03-24T10:35:32;0.70;;;0.50;;
9280;SDS011;4679;47.966;7.958;2023-03-24T10:37:36;0.90;;;0.70;;
9280;SDS011;4679;47.966;7.958;2023-03-24T10:39:38;0.20;;;0.20;;
9280;SDS011;4679;47.966;7.958;2023-03-24T10:41:40;2.20;;;0.67;;
9280;SDS011;4679;47.966;7.958;2023-03-24T10:43:44;0.10;;;0.10;;
9280;SDS011;4679;47.966;7.958;2023-03-24T10:45:47;0.37;;;0.10;;
9280;SDS011;4679;47.966;7.958;2023-03-24T10:47:53;0.27;;;0.17;;
9280;SDS011;4679;47.966;7.958;2023-03-24T10:49:59;0.30;;;0.20;;
9280;SDS011;4679;47.966;7.958;2023-03-24T10:52:04;0.20;;;0.20;;
9280;SDS011;4679;47.966;7.958;2023-03-24T10:54:10;0.20;;;0.20;;
9280;SDS011;4679;47.966;7.958;2023-03-24T10:56:15;0.93;;;0.10;;
9280;SDS011;4679;47.966;7.958;2023-03-24T10:58:19;0.20;;;0.10;;
9280;SDS011;4679;47.966;7.958;2023-03-24T11:00:29;0.93;;;0.30;;
9280;SDS011;4679;47.966;7.958;2023-03-24T11:02:32;0.30;;;0.20;;
9280;SDS011;4679;47.966;7.958;2023-03-24T11:04:35;0.07;;;0.00;;
9280;SDS011;4679;47.966;7.958;2023-03-24T11:06:38;0.23;;;0.20;;
9280;SDS011;4679;47.966;7.958;2023-03-24T11:09:14;0.00;;;0.00;;
9280;SDS011;4679;47.966;7.958;2023-03-24T11:11:26;0.30;;;0.27;;
9280;SDS011;4679;47.966;7.958;2023-03-24T11:13:31;0.00;;;0.00;;
9280;SDS011;4679;47.966;7.958;2023-03-24T11:15:34;0.40;;;0.30;;
9280;SDS011;4679;47.966;7.958;2023-03-24T11:17:36;0.10;;;0.10;;
9280;SDS011;4679;47.966;7.958;2023-03-24T11:19:41;0.33;;;0.10;;
9280;SDS011;4679;47.966;7.958;2023-03-24T11:21:54;0.20;;;0.10;;
9280;SDS011;4679;47.966;7.958;2023-03-24T11:24:03;0.10;;;0.10;;
9280;SDS011;4679;47.966;7.958;2023-03-24T11:26:12;0.00;;;0.00;;
9280;SDS011;4679;47.966;7.958;2023-03-24T11:28:16;0.00;;;0.00;;
9280;SDS011;4679;47.966;7.958;2023-03-24T11:30:21;0.00;;;0.00;;
9280;SDS011;4679;47.966;7.958;2023-03-24T11:32:23;0.00;;;0.00;;
9280;SDS011;4679;47.966;7.958;2023-03-24T11:34:29;0.00;;;0.00;;
9280;SDS011;4679;47.966;7.958;2023-03-24T11:36:41;0.00;;;0.00;;
9280;SDS011;4679;47.966;7.958;2023-03-24T11:38:46;0.00;;;0.00;;
9280;SDS011;4679;47.966;7.958;2023-03-24T11:40:59;0.10;;;0.07;;
9280;SDS011;4679;47.966;7.958;2023-03-24T11:43:04;0.00;;;0.00;;
9280;SDS011;4679;47.966;7.958;2023-03-24T11:45:18;0.10;;;0.10;;
9280;SDS011;4679;47.966;7.958;2023-03-24T11:47:22;0.10;;;0.00;;
9280;SDS011;4679;47.966;7.958;2023-03-24T11:49:29;0.10;;;0.10;;
9280;SDS011;4679;47.966;7.958;2023-03-24T11:51:35;0.10;;;0.00;;
9280;SDS011;4679;47.966;7.958;2023-03-24T11:53:41;0.10;;;0.00;;
9280;SDS011;4679;47.966;7.958;2023-03-24T11:55:48;0.03;;;0.03;;
9280;SDS011;4679;47.966;7.958;2023-03-24T11:57:55;0.40;;;0.10;;
9280;SDS011;4679;47.966;7.958;2023-03-24T12:00:03;0.10;;;0.10;;
9280;SDS011;4679;47.966;7.958;2023-03-24T12:02:17;0.20;;;0.10;;
9280;SDS011;4679;47.966;7.958;2023-03-24T12:04:28;0.07;;;0.07;;
9280;SDS011;4679;47.966;7.958;2023-03-24T12:06:44;0.00;;;0.00;;
9280;SDS011;4679;47.966;7.958;2023-03-24T12:09:00;0.10;;;0.03;;
9280;SDS011;4679;47.966;7.958;2023-03-24T12:11:13;0.10;;;0.00;;
9280;SDS011;4679;47.966;7.958;2023-03-24T12:13:24;0.20;;;0.10;;
9280;SDS011;4679;47.966;7.958;2023-03-24T12:15:39;0.10;;;0.10;;
9280;SDS011;4679;47.966;7.958;2023-03-24T12:17:58;0.00;;;0.00;;
9280;SDS011;4679;47.966;7.958;2023-03-24T12:20:15;0.00;;;0.00;;
9280;SDS011;4679;47.966;7.958;2023-03-24T12:22:26;0.10;;;0.10;;
9280;SDS011;4679;47.966;7.958;2023-03-24T12:24:44;0.00;;;0.00;;
9280;SDS011;4679;47.966;7.958;2023-03-24T12:27:12;0.10;;;0.10;;
9280;SDS011;4679;47.966;7.958;2023-03-24T12:29:30;0.10;;;0.10;;
9280;SDS011;4679;47.966;7.958;2023-03-24T12:31:55;0.10;;;0.10;;
9280;SDS011;4679;47.966;7.958;2023-03-24T12:34:06;0.00;;;0.00;;
9280;SDS011;4679;47.966;7.958;2023-03-24T12:36:32;0.80;;;0.10;;
9280;SDS011;4679;47.966;7.958;2023-03-24T12:38:47;0.20;;;0.20;;
9280;SDS011;4679;47.966;7.958;2023-03-24T12:43:46;0.97;;;0.20;;
9280;SDS011;4679;47.966;7.958;2023-03-24T12:45:52;0.00;;;0.00;;
9280;SDS011;4679;47.966;7.958;2023-03-24T12:48:08;0.10;;;0.10;;
9280;SDS011;4679;47.966;7.958;2023-03-24T12:50:25;0.07;;;0.07;;
9280;SDS011;4679;47.966;7.958;2023-03-24T12:52:49;0.20;;;0.20;;
9280;SDS011;4679;47.966;7.958;2023-03-24T12:55:00;0.37;;;0.20;;
9280;SDS011;4679;47.966;7.958;2023-03-24T12:57:08;0.10;;;0.10;;
9280;SDS011;4679;47.966;7.958;2023-03-24T12:59:13;0.07;;;0.07;;
9280;SDS011;4679;47.966;7.958;2023-03-24T13:01:22;0.10;;;0.10;;
9280;SDS011;4679;47.966;7.958;2023-03-24T13:03:29;0.10;;;0.10;;
9280;SDS011;4679;47.966;7.958;2023-03-24T13:05:39;0.17;;;0.17;;
9280;SDS011;4679;47.966;7.958;2023-03-24T13:07:44;0.30;;;0.10;;
9280;SDS011;4679;47.966;7.958;2023-03-24T13:09:48;0.20;;;0.20;;
9280;SDS011;4679;47.966;7.958;2023-03-24T13:11:56;0.67;;;0.20;;
9280;SDS011;4679;47.966;7.958;2023-03-24T13:14:03;0.60;;;0.10;;
9280;SDS011;4679;47.966;7.958;2023-03-24T13:16:12;0.10;;;0.10;;
9280;SDS011;4679;47.966;7.958;2023-03-24T13:18:19;0.23;;;0.10;;
9280;SDS011;4679;47.966;7.958;2023-03-24T13:20:31;0.10;;;0.10;;
9280;SDS011;4679;47.966;7.958;2023-03-24T13:22:37;0.17;;;0.10;;
9280;SDS011;4679;47.966;7.958;2023-03-24T13:24:40;0.20;;;0.10;;
9280;SDS011;4679;47.966;7.958;2023-03-24T13:26:43;0.20;;;0.10;;
9280;SDS011;4679;47.966;7.958;2023-03-24T13:28:56;0.10;;;0.10;;
9280;SDS011;4679;47.966;7.958;2023-03-24T13:31:08;0.20;;;0.20;;
9280;SDS011;4679;47.966;7.958;2023-03-24T13:33:13;0.30;;;0.20;;
9280;SDS011;4679;47.966;7.958;2023-03-24T13:35:20;0.73;;;0.20;;
9280;SDS011;4679;47.966;7.958;2023-03-24T13:37:32;0.20;;;0.20;;
9280;SDS011;4679;47.966;7.958;2023-03-24T13:39:36;0.10;;;0.10;;
9280;SDS011;4679;47.966;7.958;2023-03-24T13:41:39;0.20;;;0.20;;
9280;SDS011;4679;47.966;7.958;2023-03-24T13:43:45;0.20;;;0.20;;
9280;SDS011;4679;47.966;7.958;2023-03-24T13:45:50;0.50;;;0.10;;
9280;SDS011;4679;47.966;7.958;2023-03-24T13:48:04;0.60;;;0.10;;
9280;SDS011;4679;47.966;7.958;2023-03-24T13:50:18;0.10;;;0.10;;
9280;SDS011;4679;47.966;7.958;2023-03-24T13:52:24;0.20;;;0.10;;
9280;SDS011;4679;47.966;7.958;2023-03-24T13:54:29;0.57;;;0.20;;
9280;SDS011;4679;47.966;7.958;2023-03-24T13:56:33;0.20;;;0.20;;
9280;SDS011;4679;47.966;7.958;2023-03-24T13:58:45;0.10;;;0.10;;
9280;SDS011;4679;47.966;7.958;2023-03-24T14:01:05;0.20;;;0.20;;
9280;SDS011;4679;47.966;7.958;2023-03-24T14:03:30;0.33;;;0.30;;
9280;SDS011;4679;47.966;7.958;2023-03-24T14:08:16;0.53;;;0.30;;
9280;SDS011;4679;47.966;7.958;2023-03-24T14:12:50;0.30;;;0.30;;
9280;SDS011;4679;47.966;7.958;2023-03-24T14:17:16;0.20;;;0.20;;
9280;SDS011;4679;47.966;7.958;2023-03-24T14:19:21;1.03;;;0.30;;
9280;SDS011;4679;47.966;7.958;2023-03-24T14:21:28;0.30;;;0.30;;
9280;SDS011;4679;47.966;7.958;2023-03-24T14:23:33;0.53;;;0.40;;
9280;SDS011;4679;47.966;7.958;2023-03-24T14:25:38;0.23;;;0.20;;
9280;SDS011;4679;47.966;7.958;2023-03-24T14:27:40;1.27;;;0.30;;
9280;SDS011;4679;47.966;7.958;2023-03-24T14:29:46;0.30;;;0.30;;
9280;SDS011;4679;47.966;7.958;2023-03-24T14:31:50;0.33;;;0.33;;
9280;SDS011;4679;47.966;7.958;2023-03-24T14:34:05;0.30;;;0.20;;
9280;SDS011;4679;47.966;7.958;2023-03-24T14:36:11;0.30;;;0.30;;
9280;SDS011;4679;47.966;7.958;2023-03-24T14:38:22;0.50;;;0.30;;
9280;SDS011;4679;47.966;7.958;2023-03-24T14:40:27;0.40;;;0.40;;
9280;SDS011;4679;47.966;7.958;2023-03-24T14:42:53;0.50;;;0.30;;
9280;SDS011;4679;47.966;7.958;2023-03-24T14:44:57;0.20;;;0.20;;
9280;SDS011;4679;47.966;7.958;2023-03-24T14:47:01;0.27;;;0.20;;
9280;SDS011;4679;47.966;7.958;2023-03-24T14:49:05;0.20;;;0.20;;
9280;SDS011;4679;47.966;7.958;2023-03-24T14:51:29;0.23;;;0.20;;
9280;SDS011;4679;47.966;7.958;2023-03-24T14:53:36;1.07;;;0.10;;
9280;SDS011;4679;47.966;7.958;2023-03-24T14:55:39;0.17;;;0.17;;
9280;SDS011;4679;47.966;7.958;2023-03-24T14:57:43;0.30;;;0.27;;
9280;SDS011;4679;47.966;7.958;2023-03-24T14:59:49;0.50;;;0.20;;
9280;SDS011;4679;47.966;7.958;2023-03-24T15:02:00;0.77;;;0.20;;
9280;SDS011;4679;47.966;7.958;2023-03-24T15:04:12;0.20;;;0.20;;
9280;SDS011;4679;47.966;7.958;2023-03-24T15:06:15;0.77;;;0.10;;
9280;SDS011;4679;47.966;7.958;2023-03-24T15:08:20;0.30;;;0.30;;
9280;SDS011;4679;47.966;7.958;2023-03-24T15:10:24;0.30;;;0.30;;
9280;SDS011;4679;47.966;7.958;2023-03-24T15:12:26;0.20;;;0.20;;
9280;SDS011;4679;47.966;7.958;2023-03-24T15:14:28;0.30;;;0.30;;
9280;SDS011;4679;47.966;7.958;2023-03-24T15:16:31;0.30;;;0.23;;
9280;SDS011;4679;47.966;7.958;2023-03-24T15:18:35;1.80;;;0.40;;
9280;SDS011;4679;47.966;7.958;2023-03-24T15:20:44;0.30;;;0.30;;
9280;SDS011;4679;47.966;7.958;2023-03-24T15:22:46;1.03;;;0.10;;
9280;SDS011;4679;47.966;7.958;2023-03-24T15:24:51;0.50;;;0.40;;
9280;SDS011;4679;47.966;7.958;2023-03-24T15:26:54;0.40;;;0.30;;
9280;SDS011;4679;47.966;7.958;2023-03-24T15:29:14;0.20;;;0.20;;
9280;SDS011;4679;47.966;7.958;2023-03-24T15:31:16;0.30;;;0.30;;
9280;SDS011;4679;47.966;7.958;2023-03-24T15:33:22;0.37;;;0.20;;
9280;SDS011;4679;47.966;7.958;2023-03-24T15:35:25;0.20;;;0.20;;
9280;SDS011;4679;47.966;7.958;2023-03-24T15:37:31;1.60;;;0.40;;
9280;SDS011;4679;47.966;7.958;2023-03-24T15:39:36;0.70;;;0.30;;
9280;SDS011;4679;47.966;7.958;2023-03-24T15:41:41;0.40;;;0.30;;
9280;SDS011;4679;47.966;7.958;2023-03-24T15:43:45;1.37;;;0.60;;
9280;SDS011;4679;47.966;7.958;2023-03-24T15:45:51;1.23;;;0.40;;
9280;SDS011;4679;47.966;7.958;2023-03-24T15:47:54;0.63;;;0.63;;
9280;SDS011;4679;47.966;7.958;2023-03-24T15:49:58;1.17;;;0.60;;
9280;SDS011;4679;47.966;7.958;2023-03-24T15:52:03;0.30;;;0.30;;
9280;SDS011;4679;47.966;7.958;2023-03-24T15:54:25;0.70;;;0.50;;
9280;SDS011;4679;47.966;7.958;2023-03-24T15:56:29;0.37;;;0.30;;
9280;SDS011;4679;47.966;7.958;2023-03-24T15:58:48;1.20;;;0.30;;
9280;SDS011;4679;47.966;7.958;2023-03-24T16:00:53;0.30;;;0.30;;
9280;SDS011;4679;47.966;7.958;2023-03-24T16:02:59;0.10;;;0.10;;
9280;SDS011;4679;47.966;7.958;2023-03-24T16:05:04;1.90;;;0.30;;
9280;SDS011;4679;47.966;7.958;2023-03-24T16:07:20;0.20;;;0.20;;
9280;SDS011;4679;47.966;7.958;2023-03-24T16:09:34;0.97;;;0.30;;
9280;SDS011;4679;47.966;7.958;2023-03-24T16:11:40;0.20;;;0.20;;
9280;SDS011;4679;47.966;7.958;2023-03-24T16:13:43;0.30;;;0.30;;
9280;SDS011;4679;47.966;7.958;2023-03-24T16:15:47;0.47;;;0.40;;
9280;SDS011;4679;47.966;7.958;2023-03-24T16:17:56;0.30;;;0.30;;
9280;SDS011;4679;47.966;7.958;2023-03-24T16:19:58;0.90;;;0.70;;
9280;SDS011;4679;47.966;7.958;2023-03-24T16:22:00;0.30;;;0.30;;
9280;SDS011;4679;47.966;7.958;2023-03-24T16:24:06;0.40;;;0.40;;
9280;SDS011;4679;47.966;7.958;2023-03-24T16:26:08;0.80;;;0.40;;
9280;SDS011;4679;47.966;7.958;2023-03-24T16:28:14;0.53;;;0.53;;
9280;SDS011;4679;47.966;7.958;2023-03-24T16:30:20;1.50;;;0.50;;
9280;SDS011;4679;47.966;7.958;2023-03-24T16:32:27;2.17;;;0.40;;
9280;SDS011;4679;47.966;7.958;2023-03-24T16:34:29;0.30;;;0.20;;
9280;SDS011;4679;47.966;7.958;2023-03-24T16:36:31;1.33;;;0.50;;
9280;SDS011;4679;47.966;7.958;2023-03-24T16:38:34;0.57;;;0.50;;
9280;SDS011;4679;47.966;7.958;2023-03-24T16:40:36;0.70;;;0.37;;
9280;SDS011;4679;47.966;7.958;2023-03-24T16:42:41;0.77;;;0.40;;
9280;SDS011;4679;47.966;7.958;2023-03-24T16:44:43;0.20;;;0.20;;
9280;SDS011;4679;47.966;7.958;2023-03-24T16:46:47;0.40;;;0.37;;
9280;SDS011;4679;47.966;7.958;2023-03-24T16:48:54;0.80;;;0.53;;
9280;SDS011;4679;47.966;7.958;2023-03-24T16:50:56;0.93;;;0.33;;
9280;SDS011;4679;47.966;7.958;2023-03-24T16:52:59;0.30;;;0.23;;
9280;SDS011;4679;47.966;7.958;2023-03-24T16:55:03;1.20;;;0.30;;
9280;SDS011;4679;47.966;7.958;2023-03-24T16:57:06;1.00;;;0.30;;
9280;SDS011;4679;47.966;7.958;2023-03-24T16:59:08;1.10;;;0.23;;
9280;SDS011;4679;47.966;7.958;2023-03-24T17:01:13;0.50;;;0.30;;
9280;SDS011;4679;47.966;7.958;2023-03-24T17:03:26;1.00;;;0.30;;
9280;SDS011;4679;47.966;7.958;2023-03-24T17:05:33;1.27;;;0.50;;
9280;SDS011;4679;47.966;7.958;2023-03-24T17:07:39;0.30;;;0.30;;
9280;SDS011;4679;47.966;7.958;2023-03-24T17:09:41;0.30;;;0.30;;
9280;SDS011;4679;47.966;7.958;2023-03-24T17:11:43;0.50;;;0.30;;
9280;SDS011;4679;47.966;7.958;2023-03-24T17:13:47;1.13;;;0.37;;
9280;SDS011;4679;47.966;7.958;2023-03-24T17:15:50;0.30;;;0.30;;
9280;SDS011;4679;47.966;7.958;2023-03-24T17:17:52;0.20;;;0.20;;
9280;SDS011;4679;47.966;7.958;2023-03-24T17:19:55;0.50;;;0.40;;
9280;SDS011;4679;47.966;7.958;2023-03-24T17:21:59;0.60;;;0.40;;
9280;SDS011;4679;47.966;7.958;2023-03-24T17:24:01;2.00;;;0.47;;
9280;SDS011;4679;47.966;7.958;2023-03-24T17:26:05;0.43;;;0.40;;
9280;SDS011;4679;47.966;7.958;2023-03-24T17:28:11;0.30;;;0.30;;
9280;SDS011;4679;47.966;7.958;2023-03-24T17:30:14;0.70;;;0.40;;
9280;SDS011;4679;47.966;7.958;2023-03-24T17:32:17;0.73;;;0.37;;
9280;SDS011;4679;47.966;7.958;2023-03-24T17:34:19;0.30;;;0.27;;
9280;SDS011;4679;47.966;7.958;2023-03-24T17:36:21;0.50;;;0.30;;
9280;SDS011;4679;47.966;7.958;2023-03-24T17:38:24;0.40;;;0.30;;
9280;SDS011;4679;47.966;7.958;2023-03-24T17:40:26;0.30;;;0.30;;
9280;SDS011;4679;47.966;7.958;2023-03-24T17:42:27;0.20;;;0.20;;
9280;SDS011;4679;47.966;7.958;2023-03-24T17:44:29;0.50;;;0.30;;
9280;SDS011;4679;47.966;7.958;2023-03-24T17:46:32;0.67;;;0.30;;
9280;SDS011;4679;47.966;7.958;2023-03-24T17:48:34;0.23;;;0.20;;
9280;SDS011;4679;47.966;7.958;2023-03-24T17:50:36;0.30;;;0.30;;
9280;SDS011;4679;47.966;7.958;2023-03-24T17:52:39;1.33;;;0.37;;
9280;SDS011;4679;47.966;7.958;2023-03-24T17:54:44;0.50;;;0.50;;
9280;SDS011;4679;47.966;7.958;2023-03-24T17:56:46;1.23;;;0.50;;
9280;SDS011;4679;47.966;7.958;2023-03-24T17:58:48;0.40;;;0.40;;
9280;SDS011;4679;47.966;7.958;2023-03-24T18:00:53;2.40;;;0.70;;
9280;SDS011;4679;47.966;7.958;2023-03-24T18:02:57;0.57;;;0.30;;
9280;SDS011;4679;47.966;7.958;2023-03-24T18:04:59;1.40;;;0.40;;
9280;SDS011;4679;47.966;7.958;2023-03-24T18:07:01;0.53;;;0.40;;
9280;SDS011;4679;47.966;7.958;2023-03-24T18:09:03;0.33;;;0.27;;
9280;SDS011;4679;47.966;7.958;2023-03-24T18:11:07;1.80;;;0.37;;
9280;SDS011;4679;47.966;7.958;2023-03-24T18:13:10;0.30;;;0.30;;
9280;SDS011;4679;47.966;7.958;2023-03-24T18:15:12;0.87;;;0.40;;
9280;SDS011;4679;47.966;7.958;2023-03-24T18:17:13;0.50;;;0.33;;
9280;SDS011;4679;47.966;7.958;2023-03-24T18:19:15;0.40;;;0.40;;
9280;SDS011;4679;47.966;7.958;2023-03-24T18:21:18;0.60;;;0.20;;
9280;SDS011;4679;47.966;7.958;2023-03-24T18:23:20;0.40;;;0.30;;
9280;SDS011;4679;47.966;7.958;2023-03-24T18:25:21;1.40;;;0.30;;
9280;SDS011;4679;47.966;7.958;2023-03-24T18:27:25;0.80;;;0.50;;
9280;SDS011;4679;47.966;7.958;2023-03-24T18:29:26;0.20;;;0.20;;
9280;SDS011;4679;47.966;7.958;2023-03-24T18:31:28;0.47;;;0.23;;
9280;SDS011;4679;47.966;7.958;2023-03-24T18:33:31;1.17;;;0.30;;
9280;SDS011;4679;47.966;7.958;2023-03-24T18:35:33;1.30;;;0.40;;
9280;SDS011;4679;47.966;7.958;2023-03-24T18:37:34;0.47;;;0.30;;
9280;SDS011;4679;47.966;7.958;2023-03-24T18:39:36;1.57;;;0.53;;
9280;SDS011;4679;47.966;7.958;2023-03-24T18:41:39;0.57;;;0.33;;
9280;SDS011;4679;47.966;7.958;2023-03-24T18:43:42;0.90;;;0.40;;
9280;SDS011;4679;47.966;7.958;2023-03-24T18:45:46;0.70;;;0.40;;
9280;SDS011;4679;47.966;7.958;2023-03-24T18:47:48;1.50;;;1.13;;
9280;SDS011;4679;47.966;7.958;2023-03-24T18:49:49;1.70;;;0.30;;
9280;SDS011;4679;47.966;7.958;2023-03-24T18:51:51;2.97;;;1.10;;
9280;SDS011;4679;47.966;7.958;2023-03-24T18:53:53;1.23;;;0.73;;
9280;SDS011;4679;47.966;7.958;2023-03-24T18:55:55;1.20;;;0.70;;
9280;SDS011;4679;47.966;7.958;2023-03-24T18:57:56;0.47;;;0.47;;
9280;SDS011;4679;47.966;7.958;2023-03-24T18:59:59;1.70;;;0.30;;
9280;SDS011;4679;47.966;7.958;2023-03-24T19:02:01;0.70;;;0.40;;
9280;SDS011;4679;47.966;7.958;2023-03-24T19:04:03;0.67;;;0.50;;
9280;SDS011;4679;47.966;7.958;2023-03-24T19:06:06;1.20;;;0.40;;
9280;SDS011;4679;47.966;7.958;2023-03-24T19:08:09;0.60;;;0.60;;
9280;SDS011;4679;47.966;7.958;2023-03-24T19:10:14;0.40;;;0.33;;
9280;SDS011;4679;47.966;7.958;2023-03-24T19:12:15;0.30;;;0.30;;
9280;SDS011;4679;47.966;7.958;2023-03-24T19:14:17;2.40;;;0.60;;
9280;SDS011;4679;47.966;7.958;2023-03-24T19:16:20;1.63;;;0.50;;
9280;SDS011;4679;47.966;7.958;2023-03-24T19:18:22;1.23;;;0.40;;
9280;SDS011;4679;47.966;7.958;2023-03-24T19:20:24;1.43;;;0.50;;
9280;SDS011;4679;47.966;7.958;2023-03-24T19:22:26;0.80;;;0.60;;
9280;SDS011;4679;47.966;7.958;2023-03-24T19:24:28;4.90;;;0.50;;
9280;SDS011;4679;47.966;7.958;2023-03-24T19:26:29;1.90;;;0.40;;
9280;SDS011;4679;47.966;7.958;2023-03-24T19:28:31;2.10;;;0.50;;
9280;SDS011;4679;47.966;7.958;2023-03-24T19:30:33;1.60;;;0.40;;
9280;SDS011;4679;47.966;7.958;2023-03-24T19:32:36;1.83;;;0.50;;
9280;SDS011;4679;47.966;7.958;2023-03-24T19:34:38;1.33;;;0.50;;
9280;SDS011;4679;47.966;7.958;2023-03-24T19:36:40;0.63;;;0.53;;
9280;SDS011;4679;47.966;7.958;2023-03-24T19:38:43;1.10;;;0.40;;
9280;SDS011;4679;47.966;7.958;2023-03-24T19:40:45;1.13;;;0.40;;
9280;SDS011;4679;47.966;7.958;2023-03-24T19:42:47;0.90;;;0.40;;
9280;SDS011;4679;47.966;7.958;2023-03-24T19:44:48;0.50;;;0.40;;
9280;SDS011;4679;47.966;7.958;2023-03-24T19:46:50;2.23;;;0.50;;
9280;SDS011;4679;47.966;7.958;2023-03-24T19:48:53;1.97;;;0.50;;
9280;SDS011;4679;47.966;7.958;2023-03-24T19:50:55;1.93;;;0.50;;
9280;SDS011;4679;47.966;7.958;2023-03-24T19:52:56;1.63;;;0.50;;
9280;SDS011;4679;47.966;7.958;2023-03-24T19:54:58;1.53;;;0.60;;
9280;SDS011;4679;47.966;7.958;2023-03-24T19:57:00;2.60;;;0.53;;
9280;SDS011;4679;47.966;7.958;2023-03-24T19:59:02;1.60;;;0.40;;
9280;SDS011;4679;47.966;7.958;2023-03-24T20:01:03;2.63;;;0.60;;
9280;SDS011;4679;47.966;7.958;2023-03-24T20:03:05;1.17;;;0.50;;
9280;SDS011;4679;47.966;7.958;2023-03-24T20:05:08;1.60;;;0.50;;
9280;SDS011;4679;47.966;7.958;2023-03-24T20:07:10;0.43;;;0.40;;
9280;SDS011;4679;47.966;7.958;2023-03-24T20:09:12;1.23;;;0.50;;
9280;SDS011;4679;47.966;7.958;2023-03-24T20:11:14;2.30;;;0.43;;
9280;SDS011;4679;47.966;7.958;2023-03-24T20:13:16;2.00;;;0.50;;
9280;SDS011;4679;47.966;7.958;2023-03-24T20:15:19;0.33;;;0.30;;
9280;SDS011;4679;47.966;7.958;2023-03-24T20:17:21;1.63;;;0.40;;
9280;SDS011;4679;47.966;7.958;2023-03-24T20:19:25;2.63;;;0.53;;